Time;durP1;ratioP1;P1;durP2;ratioP2;P2;SDS_P1;SDS_P2;PMS_P1;PMS_P2;Temp;Humidity;BMP_temperature;BMP_pressure;BME280_temperature;BME280_humidity;BME280_pressure;Samples;Min_cycle;Max_cycle;Signal;HPM_P1;HPM_P2
2021/01/17 00:01:23;;;;;;;;;79.50;60.25;;;;;-12.83;74.99;101151.19;3726147;37;17823;-64
2021/01/17 00:03:50;;;;;;;;;75.75;60.75;;;;;-12.76;75.04;101169.31;3725507;37;17837;-63
2021/01/17 00:06:17;;;;;;;;;73.75;55.75;;;;;-12.82;75.13;101164.19;3725855;37;17847;-64
2021/01/17 00:08:43;;;;;;;;;77.00;61.50;;;;;-12.77;75.47;101165.00;3725718;38;17842;-63
2021/01/17 00:11:13;;;;;;;;;75.25;59.00;;;;;-12.69;75.43;101161.41;3726167;37;17816;-63
2021/01/17 00:13:39;;;;;;;;;70.25;50.00;;;;;-12.73;75.23;101163.22;3725502;37;17836;-64
2021/01/17 00:16:06;;;;;;;;;69.75;54.00;;;;;-12.79;75.05;101160.69;3725369;37;17832;-62
2021/01/17 00:18:33;;;;;;;;;75.50;54.75;;;;;-12.87;75.09;101167.75;3725934;38;17846;-63
2021/01/17 00:21:01;;;;;;;;;83.00;62.00;;;;;-12.94;75.29;101164.38;3725979;37;17808;-63
2021/01/17 00:23:27;;;;;;;;;67.75;52.75;;;;;-12.98;75.07;101167.91;3725553;38;17813;-64
2021/01/17 00:25:57;;;;;;;;;80.25;58.50;;;;;-13.02;75.32;101166.25;3725999;37;17816;-64
2021/01/17 00:28:24;;;;;;;;;83.75;60.00;;;;;-13.03;75.57;101171.47;3725798;37;17828;-63
2021/01/17 00:30:55;;;;;;;;;65.50;53.50;;;;;-13.43;75.22;101113.00;3726085;37;17803;-64
2021/01/17 00:33:23;;;;;;;;;78.75;59.25;;;;;-13.34;75.62;101140.66;3725936;38;17803;-64
2021/01/17 00:35:52;;;;;;;;;75.75;57.50;;;;;-13.12;75.53;101175.06;3725776;38;17800;-63
2021/01/17 00:38:18;;;;;;;;;60.00;49.50;;;;;-13.09;75.87;101173.28;3725905;38;17815;-63
2021/01/17 00:40:44;;;;;;;;;53.75;48.75;;;;;-12.94;76.16;101176.53;3725990;37;17796;-64
2021/01/17 00:43:10;;;;;;;;;70.00;51.00;;;;;-12.89;75.60;101169.53;3725527;38;17815;-63
2021/01/17 00:45:37;;;;;;;;;72.50;57.50;;;;;-12.82;75.69;101174.62;3725893;37;17788;-63
2021/01/17 00:48:05;;;;;;;;;73.00;54.50;;;;;-12.79;75.53;101181.53;3725490;38;17803;-64
2021/01/17 00:50:31;;;;;;;;;74.25;55.75;;;;;-12.86;75.31;101178.16;3726657;38;17784;-66
2021/01/17 00:52:58;;;;;;;;;62.25;52.50;;;;;-12.98;75.53;101161.81;3729727;37;17777;-63
2021/01/17 00:55:25;;;;;;;;;69.25;53.50;;;;;-12.91;75.66;101169.53;3728596;38;17777;-64
2021/01/17 00:57:52;;;;;;;;;80.00;61.25;;;;;-12.91;75.55;101174.75;3726538;38;17798;-63
2021/01/17 01:00:23;;;;;;;;;73.50;57.75;;;;;-13.01;75.77;101135.84;3726338;37;17746;-63
2021/01/17 01:02:50;;;;;;;;;73.50;52.50;;;;;-12.76;75.48;101177.16;3725575;37;17765;-62
2021/01/17 01:05:16;;;;;;;;;73.50;56.25;;;;;-12.99;75.33;101147.12;3725217;37;17770;-62
2021/01/17 01:07:43;;;;;;;;;76.25;57.00;;;;;-12.90;75.60;101158.22;3725846;37;17756;-62
2021/01/17 01:10:11;;;;;;;;;81.75;63.00;;;;;-12.97;75.61;101159.19;3725985;37;17769;-63
2021/01/17 01:12:38;;;;;;;;;69.00;53.50;;;;;-12.92;75.22;101166.97;3725682;37;17755;-65
2021/01/17 01:15:07;;;;;;;;;81.50;59.75;;;;;-12.99;75.36;101171.38;3725480;37;17738;-63
2021/01/17 01:17:34;;;;;;;;;72.75;57.50;;;;;-13.05;75.55;101168.91;3725534;37;17736;-63
2021/01/17 01:20:08;;;;;;;;;76.75;60.25;;;;;-13.03;75.35;101180.16;3725941;38;17748;-62
2021/01/17 01:22:34;;;;;;;;;84.25;63.25;;;;;-13.09;75.58;101151.59;3726152;38;17752;-64
2021/01/17 01:25:01;;;;;;;;;69.75;54.25;;;;;-12.97;75.62;101176.56;3725762;37;17745;-63
2021/01/17 01:27:28;;;;;;;;;82.25;61.00;;;;;-13.13;75.44;101158.56;3725496;38;17730;-64
2021/01/17 01:29:54;;;;;;;;;79.50;58.50;;;;;-13.05;75.72;101167.16;3726194;38;17710;-64
2021/01/17 01:32:20;;;;;;;;;76.00;58.50;;;;;-13.13;75.51;101174.19;3725931;38;17736;-62
2021/01/17 01:34:46;;;;;;;;;80.75;58.25;;;;;-13.10;75.65;101165.50;3725921;38;17714;-64
2021/01/17 01:37:12;;;;;;;;;69.50;54.00;;;;;-13.04;75.88;101168.00;3725679;38;17717;-63
2021/01/17 01:39:38;;;;;;;;;67.00;52.00;;;;;-13.02;75.62;101165.37;3726001;37;17710;-62
2021/01/17 01:42:06;;;;;;;;;71.00;53.75;;;;;-13.02;75.39;101165.37;3725955;38;17733;-63
2021/01/17 01:44:33;;;;;;;;;78.00;58.50;;;;;-13.07;75.76;101166.31;3725641;37;17706;-63
2021/01/17 01:47:02;;;;;;;;;75.00;55.50;;;;;-13.29;75.63;101138.00;3725845;37;17697;-63
2021/01/17 01:49:32;;;;;;;;;60.50;45.75;;;;;-13.26;75.73;101149.22;3725740;37;17717;-62
2021/01/17 01:52:03;;;;;;;;;67.00;49.00;;;;;-13.23;75.62;101156.16;3725646;38;17722;-64
2021/01/17 01:54:31;;;;;;;;;61.00;48.25;;;;;-13.38;75.68;101128.56;3725569;37;17718;-64
2021/01/17 01:56:57;;;;;;;;;75.75;57.00;;;;;-13.21;75.77;101160.44;3725899;37;17684;-64
2021/01/17 01:59:26;;;;;;;;;79.50;57.75;;;;;-13.25;75.42;101165.72;3725800;37;17694;-64
2021/01/17 02:01:56;;;;;;;;;86.50;64.00;;;;;-13.40;75.61;101148.53;3725963;38;17691;-63
2021/01/17 02:04:22;;;;;;;;;84.25;61.00;;;;;-13.55;75.55;101131.41;3725465;37;17672;-62
2021/01/17 02:07:26;;;;;;;;;74.50;58.00;;;;;-13.42;75.64;101158.09;3725955;38;17698;-62
2021/01/17 02:09:53;;;;;;;;;81.75;59.75;;;;;-13.54;75.39;101153.06;3725429;37;17684;-63
2021/01/17 02:12:50;;;;;;;;;91.75;66.00;;;;;-13.75;75.42;101129.03;3726047;38;17660;-63
2021/01/17 02:15:32;;;;;;;;;66.75;53.00;;;;;-13.82;75.57;101129.97;3725867;37;17684;-63
2021/01/17 02:18:06;;;;;;;;;64.00;50.75;;;;;-13.76;75.52;101145.50;3725570;37;17666;-64
2021/01/17 02:20:41;;;;;;;;;70.50;54.00;;;;;-13.88;75.45;101132.63;3725428;37;17672;-64
2021/01/17 02:23:41;;;;;;;;;69.25;51.50;;;;;-13.89;75.76;101153.47;3725735;37;17641;-64
2021/01/17 02:26:11;;;;;;;;;63.50;51.75;;;;;-13.94;75.62;101144.84;3725756;38;17636;-63
2021/01/17 02:28:39;;;;;;;;;56.50;46.50;;;;;-14.00;75.79;101147.50;3725763;38;17644;-64
2021/01/17 02:31:09;;;;;;;;;60.00;45.75;;;;;-14.03;76.00;101138.00;3725572;37;17637;-64
2021/01/17 02:33:42;;;;;;;;;71.75;51.50;;;;;-14.08;75.64;101137.19;3725525;37;17654;-64
2021/01/17 02:36:45;;;;;;;;;47.75;43.50;;;;;-14.17;75.76;101132.94;3725446;38;17632;-64
2021/01/17 02:39:37;;;;;;;;;53.75;41.50;;;;;-14.47;75.99;101095.13;3725789;37;17646;-64
2021/01/17 02:42:06;;;;;;;;;39.75;34.00;;;;;-14.32;75.77;101142.63;3726081;38;17652;-64
2021/01/17 02:44:35;;;;;;;;;44.25;38.75;;;;;-14.77;75.48;101082.44;3725150;38;17646;-63
2021/01/17 02:47:02;;;;;;;;;70.25;53.50;;;;;-14.63;75.91;101109.16;3725441;37;17631;-64
2021/01/17 02:49:30;;;;;;;;;70.75;50.00;;;;;-14.53;75.67;101130.69;3725745;38;17642;-63
2021/01/17 02:51:59;;;;;;;;;72.25;51.25;;;;;-14.51;75.89;101136.75;3726034;37;17639;-63
2021/01/17 02:54:40;;;;;;;;;51.50;38.00;;;;;-14.54;75.75;101134.19;3725611;37;18604;-63
2021/01/17 02:57:14;;;;;;;;;61.25;49.00;;;;;-14.63;75.77;101119.53;3725948;37;18607;-63
2021/01/17 03:00:07;;;;;;;;;53.75;41.75;;;;;-14.69;76.15;101109.19;3725788;37;17612;-64
2021/01/17 03:02:35;;;;;;;;;72.75;55.50;;;;;-14.61;76.07;101123.00;3725642;38;17629;-63
2021/01/17 03:05:06;;;;;;;;;60.50;47.50;;;;;-14.74;76.20;101091.06;3725755;38;18595;-64
2021/01/17 03:07:36;;;;;;;;;60.25;49.25;;;;;-14.51;76.23;101118.56;3725520;38;18589;-63
2021/01/17 03:10:11;;;;;;;;;56.50;48.50;;;;;-14.59;76.08;101113.47;3725493;38;18590;-63
2021/01/17 03:12:41;;;;;;;;;84.50;66.00;;;;;-14.55;75.73;101115.13;3726028;37;18603;-65
2021/01/17 03:15:10;;;;;;;;;82.25;60.75;;;;;-14.55;75.94;101116.84;3725960;37;18583;-63
2021/01/17 03:17:37;;;;;;;;;68.50;57.25;;;;;-14.54;76.16;101115.97;3725509;38;18581;-64
2021/01/17 03:20:05;;;;;;;;;85.00;61.75;;;;;-14.54;76.06;101113.38;3725936;37;18570;-64
2021/01/17 03:22:33;;;;;;;;;43.50;33.25;;;;;-14.66;76.02;101093.59;3725841;37;18625;-63
2021/01/17 03:25:00;;;;;;;;;63.75;51.75;;;;;-14.45;76.01;101113.31;3725331;38;18561;-64
2021/01/17 03:27:31;;;;;;;;;57.75;44.25;;;;;-14.44;76.04;101108.09;3725543;37;18570;-64
2021/01/17 03:29:58;;;;;;;;;69.50;54.25;;;;;-14.46;75.85;101112.44;3726014;38;18566;-62
2021/01/17 03:32:27;;;;;;;;;67.00;49.50;;;;;-14.55;75.83;101099.53;3725303;37;18568;-65
2021/01/17 03:34:56;;;;;;;;;71.75;52.50;;;;;-14.53;75.79;101087.38;3726065;38;18566;-65
2021/01/17 03:37:22;;;;;;;;;66.50;50.50;;;;;-14.43;75.61;101117.63;3725771;38;18550;-63
2021/01/17 03:39:48;;;;;;;;;85.25;61.00;;;;;-14.52;75.60;101114.22;3725971;37;18545;-64
2021/01/17 03:42:15;;;;;;;;;55.50;48.25;;;;;-14.53;75.82;101120.31;3725820;37;18556;-63
2021/01/17 03:44:42;;;;;;;;;71.25;54.25;;;;;-14.58;76.00;101116.91;3725483;37;18527;-64
2021/01/17 03:47:09;;;;;;;;;80.50;62.50;;;;;-14.63;76.18;101124.75;3725446;38;18524;-64
2021/01/17 03:49:38;;;;;;;;;82.00;57.00;;;;;-14.62;76.14;101123.88;3726010;37;18532;-65
2021/01/17 03:52:04;;;;;;;;;71.25;53.00;;;;;-14.61;76.15;101124.72;3725622;37;18550;-64
2021/01/17 03:54:31;;;;;;;;;70.50;52.25;;;;;-14.61;76.33;101120.41;3725644;38;18527;-64
2021/01/17 03:56:57;;;;;;;;;67.50;50.75;;;;;-14.62;76.11;101120.41;3725435;37;18528;-64
2021/01/17 03:59:24;;;;;;;;;87.25;60.00;;;;;-14.58;76.43;101132.50;3725751;37;18620;-64
2021/01/17 04:01:51;;;;;;;;;71.25;55.00;;;;;-14.49;76.17;101125.47;3725490;38;18531;-63
2021/01/17 04:04:17;;;;;;;;;72.00;54.00;;;;;-14.43;76.36;101130.62;3725761;38;18525;-64
2021/01/17 04:06:43;;;;;;;;;76.75;57.25;;;;;-14.41;76.39;101126.22;3726054;37;18535;-64
2021/01/17 04:09:10;;;;;;;;;70.75;52.50;;;;;-14.32;76.24;101132.22;3726114;37;18544;-64
2021/01/17 04:11:36;;;;;;;;;74.50;57.00;;;;;-14.31;75.95;101124.41;3726127;38;18526;-64
2021/01/17 04:14:03;;;;;;;;;70.00;53.00;;;;;-14.26;76.19;101132.16;3725390;38;18510;-64
2021/01/17 04:16:30;;;;;;;;;53.75;40.00;;;;;-14.29;75.98;101134.81;3725812;38;18514;-65
2021/01/17 04:18:59;;;;;;;;;82.00;63.25;;;;;-14.33;75.70;101133.09;3725453;38;18505;-64
2021/01/17 04:21:25;;;;;;;;;82.75;62.50;;;;;-14.32;76.15;101135.69;3725339;38;18516;-64
2021/01/17 04:23:52;;;;;;;;;72.75;57.25;;;;;-14.27;76.09;101139.09;3725738;37;18503;-63
2021/01/17 04:26:24;;;;;;;;;71.75;52.25;;;;;-14.26;76.08;101127.84;3725442;37;18492;-63
2021/01/17 04:28:51;;;;;;;;;56.00;49.00;;;;;-14.20;76.17;101138.19;3725458;37;18509;-64
2021/01/17 04:31:18;;;;;;;;;70.50;55.75;;;;;-14.10;76.36;101131.16;3725831;37;18480;-64
2021/01/17 04:33:45;;;;;;;;;80.75;62.50;;;;;-14.10;75.74;101126.81;3725301;37;18501;-64
2021/01/17 04:36:16;;;;;;;;;70.50;52.50;;;;;-14.33;75.58;101096.72;3726079;38;18468;-64
2021/01/17 04:38:42;;;;;;;;;79.00;59.00;;;;;-14.11;76.03;101137.22;3726186;37;18481;-64
2021/01/17 04:41:16;;;;;;;;;68.75;53.00;;;;;-14.01;75.93;101140.56;3725844;37;18469;-65
2021/01/17 04:43:56;;;;;;;;;61.75;50.50;;;;;-13.82;76.43;101127.38;3725561;38;18471;-63
2021/01/17 04:46:25;;;;;;;;;74.75;60.00;;;;;-13.79;75.78;101131.66;3725939;38;18480;-65
2021/01/17 04:49:08;;;;;;;;;73.25;59.50;;;;;-14.10;75.56;101106.00;3726001;38;18467;-65
2021/01/17 04:51:36;;;;;;;;;62.50;52.00;;;;;-13.90;75.83;101142.19;3726751;37;18452;-64
2021/01/17 04:54:05;;;;;;;;;100.50;76.75;;;;;-13.88;75.78;101131.78;3726660;37;18483;-64
2021/01/17 04:56:39;;;;;;;;;82.00;59.50;;;;;-13.90;75.61;101129.19;3726196;37;18443;-63
2021/01/17 04:59:14;;;;;;;;;69.25;52.25;;;;;-14.15;75.77;101096.53;3725530;37;18457;-63
2021/01/17 05:02:32;;;;;;;;;72.25;51.75;;;;;-13.91;75.75;101137.88;3725793;38;18463;-63
2021/01/17 05:05:12;;;;;;;;;83.00;60.75;;;;;-13.89;75.67;101136.09;3726010;37;18453;-63
2021/01/17 05:07:38;;;;;;;;;82.00;65.00;;;;;-14.09;75.47;101112.94;3726127;37;18443;-66
2021/01/17 05:10:11;;;;;;;;;84.50;63.25;;;;;-14.25;75.37;101102.69;3726210;37;18435;-64
2021/01/17 05:12:53;;;;;;;;;81.50;62.75;;;;;-13.99;75.87;101133.62;3725420;37;18456;-64
2021/01/17 05:15:23;;;;;;;;;78.25;58.00;;;;;-14.01;75.71;101133.62;3725521;37;18429;-63
2021/01/17 05:17:56;;;;;;;;;75.75;60.25;;;;;-14.07;75.69;101136.31;3725468;37;18415;-64
2021/01/17 05:20:22;;;;;;;;;70.00;56.00;;;;;-14.10;75.44;101144.16;3726143;37;18416;-64
2021/01/17 05:22:50;;;;;;;;;77.00;55.75;;;;;-14.08;75.53;101142.41;3725400;37;18420;-64
2021/01/17 05:25:20;;;;;;;;;66.50;49.50;;;;;-14.15;75.56;101127.75;3727144;38;18414;-64
2021/01/17 05:27:51;;;;;;;;;87.25;62.50;;;;;-14.02;75.92;101133.66;3725585;37;18409;-63
2021/01/17 05:30:19;;;;;;;;;70.50;56.00;;;;;-13.97;75.73;101144.88;3725753;38;18418;-63
2021/01/17 05:32:54;;;;;;;;;81.50;59.00;;;;;-13.98;75.57;101140.53;3725508;38;18417;-64
2021/01/17 05:35:24;;;;;;;;;70.25;54.25;;;;;-14.00;75.41;101135.34;3725415;38;18396;-65
2021/01/17 05:37:53;;;;;;;;;84.75;62.50;;;;;-14.29;75.60;101093.22;3725653;38;18404;-64
2021/01/17 05:40:22;;;;;;;;;84.25;63.00;;;;;-14.19;75.54;101102.63;3725617;38;18386;-64
2021/01/17 05:42:50;;;;;;;;;84.50;59.00;;;;;-14.03;75.68;101129.34;3725508;37;18384;-64
2021/01/17 05:45:23;;;;;;;;;78.25;58.00;;;;;-14.01;75.77;101140.56;3725702;37;18391;-64
2021/01/17 05:48:01;;;;;;;;;84.25;63.25;;;;;-14.05;75.44;101150.19;3725631;37;18396;-63
2021/01/17 05:50:32;;;;;;;;;69.75;58.00;;;;;-14.04;75.43;101146.69;3725442;37;18404;-64
2021/01/17 05:53:03;;;;;;;;;84.50;61.75;;;;;-14.19;75.89;101141.63;3725502;38;18391;-65
2021/01/17 05:55:55;;;;;;;;;86.00;62.00;;;;;-14.24;75.62;101149.47;3725767;37;18381;-62
2021/01/17 05:58:32;;;;;;;;;74.00;59.50;;;;;-14.48;75.80;101101.19;3725875;37;18369;-64
2021/01/17 06:01:17;;;;;;;;;83.00;64.25;;;;;-14.08;76.09;101145.87;3725519;37;18372;-64
2021/01/17 06:03:54;;;;;;;;;76.75;57.75;;;;;-14.02;75.81;101144.06;3725504;37;18377;-64
2021/01/17 06:06:29;;;;;;;;;75.50;56.75;;;;;-14.00;75.91;101152.69;3725992;38;18377;-63
2021/01/17 06:08:58;;;;;;;;;78.75;60.00;;;;;-13.97;75.87;101156.13;3725484;38;18372;-66
2021/01/17 06:11:25;;;;;;;;;63.50;47.00;;;;;-13.95;75.72;101148.31;3725975;37;18357;-64
2021/01/17 06:13:59;;;;;;;;;82.50;60.25;;;;;-13.93;75.53;101157.81;3725836;38;18346;-63
2021/01/17 06:16:36;;;;;;;;;86.00;63.25;;;;;-13.91;75.56;101163.88;3725438;38;18358;-62
2021/01/17 06:19:12;;;;;;;;;66.50;53.50;;;;;-13.91;75.68;101134.41;3725647;37;18352;-64
2021/01/17 06:21:39;;;;;;;;;66.75;56.50;;;;;-13.83;75.94;101135.19;3725463;37;18331;-62
2021/01/17 06:24:08;;;;;;;;;91.75;68.50;;;;;-13.64;75.42;101167.06;3725250;37;18348;-62
2021/01/17 06:26:37;;;;;;;;;74.75;58.50;;;;;-13.68;75.35;101165.37;3725726;38;18327;-62
2021/01/17 06:29:07;;;;;;;;;72.75;54.00;;;;;-13.62;75.34;101165.31;3725867;37;18336;-63
2021/01/17 06:31:35;;;;;;;;;80.00;64.75;;;;;-13.55;75.44;101167.84;3725396;37;18355;-63
2021/01/17 06:34:13;;;;;;;;;87.25;66.50;;;;;-13.49;75.50;101166.88;3725819;37;18333;-62
2021/01/17 06:36:47;;;;;;;;;87.25;66.25;;;;;-13.40;75.42;101171.97;3725976;38;18331;-63
2021/01/17 06:39:25;;;;;;;;;72.50;58.00;;;;;-13.25;75.79;101174.38;3725440;38;18307;-64
2021/01/17 06:41:57;;;;;;;;;77.00;60.25;;;;;-13.08;75.56;101164.59;3725999;37;18309;-64
2021/01/17 06:44:29;;;;;;;;;78.75;61.25;;;;;-12.84;75.67;101178.12;3725927;37;18314;-63
2021/01/17 06:46:56;;;;;;;;;70.25;53.50;;;;;-12.66;75.90;101177.00;3725909;37;18297;-62
2021/01/17 06:49:26;;;;;;;;;78.00;60.50;;;;;-12.45;76.12;101182.75;3725616;38;18300;-65
2021/01/17 06:51:55;;;;;;;;;62.50;49.00;;;;;-12.24;76.27;101180.69;3725827;37;18312;-63
2021/01/17 06:54:23;;;;;;;;;65.50;47.75;;;;;-12.27;76.18;101149.44;3725444;38;18304;-62
2021/01/17 06:56:59;;;;;;;;;73.50;53.25;;;;;-11.97;75.76;101192.41;3726100;37;18304;-66
2021/01/17 06:59:49;;;;;;;;;65.00;47.50;;;;;-12.05;75.48;101166.44;3725495;37;18310;-63
2021/01/17 07:03:01;;;;;;;;;42.25;36.25;;;;;-11.89;75.21;101193.09;3725415;37;18289;-64
2021/01/17 07:05:42;;;;;;;;;62.00;48.50;;;;;-11.87;75.29;101162.63;3725840;38;18307;-63
2021/01/17 07:08:37;;;;;;;;;69.25;52.75;;;;;-11.49;75.54;101167.97;3726007;37;18295;-63
2021/01/17 07:11:19;;;;;;;;;65.50;51.00;;;;;-11.29;75.33;101171.91;3725438;37;18263;-65
2021/01/17 07:13:49;;;;;;;;;71.00;57.25;;;;;-11.21;74.92;101157.78;3725666;38;18266;-63
2021/01/17 07:16:31;;;;;;;;;74.00;56.50;;;;;-10.82;75.24;101170.88;3725863;38;18285;-62
2021/01/17 07:19:06;;;;;;;;;67.25;49.50;;;;;-10.65;74.29;101186.19;3725430;38;18275;-65
2021/01/17 07:21:37;;;;;;;;;65.75;48.75;;;;;-10.50;74.34;101184.09;3725419;37;18582;-63
2021/01/17 07:24:05;;;;;;;;;53.25;44.75;;;;;-10.40;74.38;101169.91;3725710;37;18265;-67
2021/01/17 07:27:32;;;;;;;;;60.00;49.00;;;;;-10.18;74.10;101183.25;3725837;38;18255;-68
2021/01/17 07:29:59;;;;;;;;;59.25;50.75;;;;;-10.13;73.25;101178.78;3725927;37;18247;-63
2021/01/17 07:32:52;;;;;;;;;65.50;47.00;;;;;-10.05;73.47;101175.97;3726126;38;18280;-64
2021/01/17 07:35:27;;;;;;;;;66.00;48.25;;;;;-10.01;73.02;101175.00;3727181;38;18257;-65
2021/01/17 07:37:58;;;;;;;;;57.25;46.50;;;;;-10.15;72.38;101154.41;3725564;38;18233;-63
2021/01/17 07:43:45;;;;;;;;;63.00;47.00;;;;;-9.73;72.54;101157.66;3725861;38;18225;-64
2021/01/17 07:46:18;;;;;;;;;63.50;49.00;;;;;-9.50;72.16;101177.97;3725431;37;18242;-64
2021/01/17 07:48:48;;;;;;;;;59.50;44.00;;;;;-9.40;71.55;101175.97;3725446;37;18237;-63
2021/01/17 07:51:16;;;;;;;;;54.25;45.50;;;;;-9.36;71.70;101167.97;3725303;38;21016;-64
2021/01/17 07:54:13;;;;;;;;;71.75;53.00;;;;;-9.19;71.43;101184.97;3725033;38;21047;-68
2021/01/17 07:56:43;;;;;;;;;64.25;50.00;;;;;-9.03;71.04;101176.63;3725530;38;18233;-64
2021/01/17 07:59:10;;;;;;;;;58.25;46.00;;;;;-9.08;70.78;101146.19;3725029;37;21013;-64
2021/01/17 08:01:45;;;;;;;;;70.25;51.25;;;;;-8.88;70.31;101169.22;3725676;38;21004;-64
2021/01/17 08:04:32;;;;;;;;;50.50;45.00;;;;;-8.84;70.35;101171.69;3725088;37;20991;-64
2021/01/17 08:07:01;;;;;;;;;68.25;56.25;;;;;-8.98;69.86;101142.41;3725890;37;21020;-63
2021/01/17 08:09:46;;;;;;;;;52.25;44.50;;;;;-8.69;69.62;101179.06;3725547;37;18214;-65
2021/01/17 08:12:30;;;;;;;;;51.25;45.00;;;;;-8.64;69.41;101167.59;3725175;37;21005;-66
2021/01/17 08:15:22;;;;;;;;;51.75;39.25;;;;;-8.51;69.23;101182.03;3725593;37;21017;-65
2021/01/17 08:17:50;;;;;;;;;46.50;36.75;;;;;-8.30;69.05;101186.56;3725875;37;21003;-64
2021/01/17 08:20:24;;;;;;;;;53.25;38.75;;;;;-8.34;67.84;101198.12;3726327;37;20995;-66
2021/01/17 08:23:15;;;;;;;;;41.00;35.00;;;;;-8.23;67.88;101200.34;3725910;37;21005;-65
2021/01/17 08:25:55;;;;;;;;;46.25;38.00;;;;;-8.21;67.28;101202.03;3725573;37;21004;-65
2021/01/17 08:28:36;;;;;;;;;50.50;43.00;;;;;-8.27;66.79;101193.47;3725702;37;20963;-64
2021/01/17 08:31:22;;;;;;;;;49.25;42.75;;;;;-8.22;66.58;101199.44;3726024;37;20987;-65
2021/01/17 08:34:11;;;;;;;;;56.50;45.25;;;;;-8.15;66.43;101200.97;3725900;37;20965;-65
2021/01/17 08:36:38;;;;;;;;;39.00;34.75;;;;;-8.15;65.60;101201.81;3725573;37;20969;-63
2021/01/17 08:39:05;;;;;;;;;48.25;40.50;;;;;-8.08;65.96;101205.12;3726014;37;20963;-64
2021/01/17 08:41:34;;;;;;;;;54.75;41.25;;;;;-7.82;66.01;101206.87;3725881;38;20960;-64
2021/01/17 08:44:00;;;;;;;;;56.00;45.75;;;;;-7.68;65.38;101215.12;3725769;37;20949;-64
2021/01/17 08:46:38;;;;;;;;;48.00;36.75;;;;;-7.94;64.21;101208.16;3725952;38;20949;-64
2021/01/17 08:49:08;;;;;;;;;50.00;45.00;;;;;-7.95;64.43;101216.09;3725642;38;20945;-63
2021/01/17 08:51:35;;;;;;;;;48.50;42.00;;;;;-7.88;64.69;101192.19;3725212;37;20952;-64
2021/01/17 08:54:48;;;;;;;;;48.75;45.00;;;;;-7.67;64.76;101175.66;3725734;37;20929;-64
2021/01/17 08:57:52;;;;;;;;;36.75;33.25;;;;;-7.47;64.39;101203.03;3725095;38;20935;-64
2021/01/17 09:00:42;;;;;;;;;58.00;44.50;;;;;-7.28;63.89;101184.84;3725697;38;20955;-65
2021/01/17 09:03:52;;;;;;;;;56.25;41.50;;;;;-7.25;63.83;101145.25;3725118;38;20953;-63
2021/01/17 09:06:33;;;;;;;;;47.50;43.75;;;;;-6.82;63.48;101191.88;3725038;37;20943;-65
2021/01/17 09:09:07;;;;;;;;;48.75;43.50;;;;;-7.08;62.49;101163.91;3724994;38;20913;-64
2021/01/17 09:11:37;;;;;;;;;24.00;17.50;;;;;-6.85;62.24;101182.31;3725010;37;20936;-64
2021/01/17 09:14:35;;;;;;;;;55.75;42.00;;;;;-6.58;62.75;101188.28;3725825;38;20873;-65
2021/01/17 09:17:12;;;;;;;;;59.50;46.75;;;;;-6.58;62.09;101184.78;3725823;37;20981;-63
2021/01/17 09:19:39;;;;;;;;;55.50;41.25;;;;;-6.55;61.89;101193.41;3725985;38;20924;-63
2021/01/17 09:22:07;;;;;;;;;57.75;48.25;;;;;-6.35;62.20;101182.97;3725649;37;20931;-63
2021/01/17 09:24:38;;;;;;;;;21.50;14.25;;;;;-6.35;61.39;101177.69;3725437;38;20885;-64
2021/01/17 09:27:09;;;;;;;;;51.50;42.75;;;;;-6.59;60.13;101189.19;3725835;38;20870;-63
2021/01/17 09:29:38;;;;;;;;;52.25;36.50;;;;;-6.61;60.72;101185.75;3725579;37;20901;-63
2021/01/17 09:32:17;;;;;;;;;53.75;43.25;;;;;-6.69;60.62;101182.56;3535342;38;1140655;-63
2021/01/17 09:34:49;;;;;;;;;46.00;39.75;;;;;-6.70;60.57;101181.72;3725513;38;20971;-65
2021/01/17 09:37:23;;;;;;;;;65.00;37.75;;;;;-6.89;60.31;101148.28;3724847;37;20896;-64
2021/01/17 09:39:53;;;;;;;;;33.25;30.00;;;;;-6.65;60.15;101180.69;3725132;38;20912;-64
2021/01/17 09:42:24;;;;;;;;;49.00;39.75;;;;;-6.63;60.31;101186.75;3725278;38;20859;-63
2021/01/17 09:44:59;;;;;;;;;40.25;31.50;;;;;-6.31;60.88;101175.81;3725528;37;20877;-63
2021/01/17 09:47:27;;;;;;;;;46.50;37.75;;;;;-6.07;59.97;101169.50;3725100;37;20863;-64
2021/01/17 09:49:56;;;;;;;;;39.25;33.75;;;;;-6.15;59.65;101153.16;3725142;37;20916;-64
2021/01/17 09:52:25;;;;;;;;;49.75;37.50;;;;;-6.10;59.78;101135.37;3724358;38;20858;-64
2021/01/17 09:54:56;;;;;;;;;52.50;41.50;;;;;-6.01;59.45;101160.50;3724713;37;20850;-64
2021/01/17 09:57:25;;;;;;;;;44.00;37.25;;;;;-6.02;59.74;101172.81;3725465;37;20827;-62
2021/01/17 09:59:55;;;;;;;;;48.25;39.50;;;;;-5.91;59.87;101172.37;3725332;38;20863;-63
2021/01/17 10:02:24;;;;;;;;;62.75;48.25;;;;;-5.93;59.59;101137.31;3725916;37;20844;-63
2021/01/17 10:04:53;;;;;;;;;51.75;42.50;;;;;-5.83;60.04;101148.31;3725334;38;20854;-64
2021/01/17 10:07:21;;;;;;;;;41.00;37.50;;;;;-5.49;60.38;101163.50;3724999;37;20830;-64
2021/01/17 10:09:51;;;;;;;;;43.50;38.75;;;;;-5.43;60.35;101160.59;3725156;38;20822;-62
2021/01/17 10:12:24;;;;;;;;;49.00;40.25;;;;;-5.57;59.71;101179.66;3725161;38;20808;-65
2021/01/17 10:14:52;;;;;;;;;53.75;43.75;;;;;-5.64;60.36;101165.03;3725516;38;20855;-65
2021/01/17 10:17:19;;;;;;;;;40.50;30.50;;;;;-5.89;60.49;101165.25;3725842;37;20845;-64
2021/01/17 10:19:47;;;;;;;;;49.25;40.25;;;;;-5.86;61.05;101141.38;3725858;37;20911;-63
2021/01/17 10:22:16;;;;;;;;;51.50;42.75;;;;;-5.86;61.82;101127.34;3725827;37;20839;-66
2021/01/17 10:24:43;;;;;;;;;52.00;44.50;;;;;-5.48;61.50;101157.31;3725489;37;20822;-66
2021/01/17 10:27:16;;;;;;;;;33.25;30.50;;;;;-5.62;61.52;101131.53;3725776;37;20818;-66
2021/01/17 10:29:42;;;;;;;;;56.00;46.75;;;;;-5.61;61.46;101124.47;3725920;37;20810;-64
2021/01/17 10:32:14;;;;;;;;;49.25;39.25;;;;;-5.53;61.43;101140.81;3725835;37;20796;-65
2021/01/17 10:34:47;;;;;;;;;39.00;35.00;;;;;-5.38;61.71;101130.47;3725979;37;20805;-64
2021/01/17 10:37:18;;;;;;;;;48.50;37.00;;;;;-5.53;61.17;101125.00;3725601;37;20790;-64
2021/01/17 10:39:45;;;;;;;;;51.50;44.25;;;;;-5.39;60.98;101138.44;3726056;37;20821;-64
2021/01/17 10:42:28;;;;;;;;;47.25;38.25;;;;;-5.30;61.26;101138.03;3725812;38;20798;-64
2021/01/17 10:45:19;;;;;;;;;50.25;43.00;;;;;-5.17;61.02;101136.53;3726084;38;20812;-69
2021/01/17 10:48:15;;;;;;;;;40.75;34.00;;;;;-5.26;60.53;101126.41;3726315;37;20818;-63
2021/01/17 10:51:07;;;;;;;;;37.25;30.50;;;;;-5.40;60.93;101084.84;3727356;38;20776;-62
2021/01/17 10:53:49;;;;;;;;;54.00;38.50;;;;;-5.28;60.24;101108.94;3726969;37;20786;-62
2021/01/17 10:56:24;;;;;;;;;43.25;38.75;;;;;-5.26;60.22;101123.78;3727178;37;20784;-64
2021/01/17 10:58:51;;;;;;;;;45.75;40.50;;;;;-5.53;60.25;101104.75;3726609;37;20768;-64
2021/01/17 11:01:30;;;;;;;;;46.00;35.00;;;;;-5.43;60.54;101110.50;3726604;38;20758;-62
2021/01/17 11:04:00;;;;;;;;;41.25;31.25;;;;;-5.30;60.56;101109.03;3726164;37;20761;-64
2021/01/17 11:06:29;;;;;;;;;45.00;37.75;;;;;-5.47;59.97;101122.09;3725565;37;20788;-62
2021/01/17 11:08:58;;;;;;;;;50.75;40.25;;;;;-5.49;60.92;101114.25;3726409;37;20756;-63
2021/01/17 11:11:30;;;;;;;;;42.50;34.75;;;;;-5.57;60.46;101113.72;3725844;38;20746;-62
2021/01/17 11:14:01;;;;;;;;;44.50;37.50;;;;;-5.48;60.70;101101.94;3725834;37;20760;-63
2021/01/17 11:16:57;;;;;;;;;38.00;29.00;;;;;-5.57;60.87;101065.41;3725572;37;20759;-64
2021/01/17 11:19:43;;;;;;;;;32.25;26.75;;;;;-5.34;60.88;101108.31;3726113;37;20723;-64
2021/01/17 11:22:10;;;;;;;;;36.50;32.50;;;;;-5.66;60.38;101109.72;3725703;38;20733;-66
2021/01/17 11:24:41;;;;;;;;;45.50;35.25;;;;;-5.78;61.10;101086.56;3726010;37;20726;-62
2021/01/17 11:27:15;;;;;;;;;46.25;37.00;;;;;-5.72;61.31;101074.88;3726074;37;20757;-62
2021/01/17 11:29:43;;;;;;;;;49.75;40.00;;;;;-6.01;61.13;101071.78;3725795;38;20731;-65
2021/01/17 11:32:11;;;;;;;;;33.50;27.00;;;;;-5.86;61.56;101101.84;3725571;37;20746;-63
2021/01/17 11:34:41;;;;;;;;;38.25;29.50;;;;;-5.84;61.68;101097.38;3725952;38;20714;-63